WJA2753 MYGF-CYYZ
Flight info
| Callsign | WJA2753 |
|---|---|
| Flight time | 2h 32m |
| Altitude | 36000 |
| Route | ZFP BR65V ADOOR M202 ETECK DCT JAZZI DCT GARIC Q129 PYTON DCT LEONI DCT WOZEE LINNG3 |
| Aircraft | B738/M-SDE2E3FGHIRWXY/LB1 |
Departure
| Time | 2026-05-03 21:47 |
|---|---|
| Airport | Grand Bahama International Airport (MYGF) |
Arrival
| Time | 2026-05-04 00:19 |
|---|---|
| Airport | Toronto Pearson International Airport (CYYZ) |
| Time | Latitude | Longitude | Altitude | Speed | Heading |
|---|---|---|---|---|---|
| 2026-05-03 21:26 | 26.54847 | -78.70261 | 27 ft | 0 kts | 277° |
| 2026-05-03 21:43 | 26.54850 | -78.70265 | 23 ft | 3 kts | 309° |
| 2026-05-03 21:43 | 26.54894 | -78.70284 | 26 ft | 10 kts | 347° |
| 2026-05-03 21:43 | 26.54957 | -78.70304 | 23 ft | 10 kts | 310° |
| 2026-05-03 21:44 | 26.54964 | -78.70383 | 23 ft | 11 kts | 271° |
| 2026-05-03 21:44 | 26.54966 | -78.70467 | 23 ft | 11 kts | 272° |
| 2026-05-03 21:44 | 26.54969 | -78.70559 | 23 ft | 13 kts | 272° |
| 2026-05-03 21:44 | 26.54971 | -78.70660 | 23 ft | 13 kts | 274° |
| 2026-05-03 21:45 | 26.54975 | -78.70769 | 26 ft | 15 kts | 271° |
| 2026-05-03 21:45 | 26.54978 | -78.70884 | 23 ft | 15 kts | 271° |
| 2026-05-03 21:45 | 26.54990 | -78.70994 | 24 ft | 14 kts | 304° |
| 2026-05-03 21:45 | 26.55081 | -78.71007 | 24 ft | 13 kts | 2° |
| 2026-05-03 21:46 | 26.55160 | -78.70974 | 27 ft | 12 kts | 55° |
| 2026-05-03 21:46 | 26.55194 | -78.70908 | 29 ft | 15 kts | 62° |
| 2026-05-03 21:46 | 26.55341 | -78.70603 | 29 ft | 75 kts | 60° |
| 2026-05-03 21:46 | 26.55695 | -78.69902 | 25 ft | 130 kts | 61° |
| 2026-05-03 21:47 | 26.56203 | -78.68880 | 110 ft | 165 kts | 61° |
| 2026-05-03 21:47 | 26.56741 | -78.67795 | 825 ft | 156 kts | 60° |
| 2026-05-03 21:47 | 26.57309 | -78.66674 | 1123 ft | 176 kts | 60° |
| 2026-05-03 21:47 | 26.57921 | -78.65490 | 1754 ft | 172 kts | 60° |
| 2026-05-03 21:48 | 26.58560 | -78.64283 | 2088 ft | 194 kts | 52° |
| 2026-05-03 21:48 | 26.59728 | -78.63444 | 2289 ft | 214 kts | 7° |
| 2026-05-03 21:48 | 26.61245 | -78.63548 | 2472 ft | 231 kts | 350° |
| 2026-05-03 21:48 | 26.62890 | -78.63825 | 2816 ft | 245 kts | 349° |
| 2026-05-03 21:49 | 26.64633 | -78.64084 | 3311 ft | 261 kts | 350° |
| 2026-05-03 21:49 | 26.66466 | -78.64386 | 3917 ft | 271 kts | 350° |
| 2026-05-03 21:49 | 26.68340 | -78.64596 | 4745 ft | 272 kts | 353° |
| 2026-05-03 21:49 | 26.70252 | -78.64762 | 5413 ft | 277 kts | 351° |
| 2026-05-03 21:50 | 26.72177 | -78.64936 | 6105 ft | 278 kts | 353° |
| 2026-05-03 21:50 | 26.74118 | -78.65066 | 6736 ft | 281 kts | 353° |
| 2026-05-03 21:50 | 26.76076 | -78.65199 | 7353 ft | 283 kts | 352° |
| 2026-05-03 21:50 | 26.78058 | -78.65347 | 7932 ft | 287 kts | 352° |
| 2026-05-03 21:51 | 26.80059 | -78.65493 | 8585 ft | 289 kts | 352° |
| 2026-05-03 21:51 | 26.82070 | -78.65636 | 9249 ft | 291 kts | 351° |
| 2026-05-03 21:51 | 26.84075 | -78.65778 | 9864 ft | 294 kts | 351° |
| 2026-05-03 21:51 | 26.86138 | -78.65925 | 10302 ft | 304 kts | 351° |
| 2026-05-03 21:52 | 26.88323 | -78.66085 | 10435 ft | 324 kts | 351° |
| 2026-05-03 21:52 | 26.90636 | -78.66252 | 10582 ft | 343 kts | 352° |
| 2026-05-03 21:52 | 26.93061 | -78.66423 | 10926 ft | 353 kts | 352° |
| 2026-05-03 21:52 | 26.95530 | -78.66594 | 11452 ft | 357 kts | 352° |
| 2026-05-03 21:53 | 26.98019 | -78.66766 | 12025 ft | 360 kts | 352° |
| 2026-05-03 21:53 | 27.00535 | -78.66942 | 12563 ft | 364 kts | 352° |
| 2026-05-03 21:53 | 27.03040 | -78.67120 | 13149 ft | 367 kts | 352° |
| 2026-05-03 21:53 | 27.05599 | -78.67292 | 13738 ft | 371 kts | 354° |
| 2026-05-03 21:54 | 27.08187 | -78.67276 | 14230 ft | 377 kts | 357° |
| 2026-05-03 21:54 | 27.10822 | -78.67151 | 14745 ft | 380 kts | 358° |
| 2026-05-03 21:54 | 27.13478 | -78.66993 | 15286 ft | 384 kts | 358° |
| 2026-05-03 21:54 | 27.16152 | -78.66833 | 15813 ft | 387 kts | 358° |
| 2026-05-03 21:55 | 27.18853 | -78.66679 | 16347 ft | 390 kts | 358° |
| 2026-05-03 21:55 | 27.21565 | -78.66532 | 16860 ft | 393 kts | 358° |
| 2026-05-03 21:55 | 27.24310 | -78.66390 | 17377 ft | 397 kts | 357° |
| 2026-05-03 21:55 | 27.27075 | -78.66252 | 17879 ft | 400 kts | 357° |
| 2026-05-03 21:56 | 27.29829 | -78.66116 | 18360 ft | 404 kts | 357° |
| 2026-05-03 21:56 | 27.32648 | -78.65976 | 18782 ft | 407 kts | 357° |
| 2026-05-03 21:56 | 27.35488 | -78.65836 | 19215 ft | 410 kts | 357° |
| 2026-05-03 21:56 | 27.38347 | -78.65696 | 19642 ft | 413 kts | 356° |
| 2026-05-03 21:57 | 27.41230 | -78.65555 | 20077 ft | 417 kts | 356° |
| 2026-05-03 21:57 | 27.44135 | -78.65411 | 20627 ft | 420 kts | 356° |
| 2026-05-03 21:57 | 27.47063 | -78.65265 | 21106 ft | 423 kts | 356° |
| 2026-05-03 21:57 | 27.50021 | -78.65119 | 21553 ft | 428 kts | 356° |
| 2026-05-03 21:58 | 27.53013 | -78.64973 | 21924 ft | 432 kts | 356° |
| 2026-05-03 21:58 | 27.55981 | -78.64827 | 22323 ft | 434 kts | 356° |
| 2026-05-03 21:58 | 27.59006 | -78.64677 | 22725 ft | 437 kts | 356° |
| 2026-05-03 21:58 | 27.62059 | -78.64526 | 23156 ft | 442 kts | 355° |
| 2026-05-03 21:59 | 27.65149 | -78.64376 | 23568 ft | 446 kts | 355° |
| 2026-05-03 21:59 | 27.68263 | -78.64223 | 23942 ft | 449 kts | 355° |
| 2026-05-03 21:59 | 27.71390 | -78.64070 | 24332 ft | 450 kts | 355° |
| 2026-05-03 21:59 | 27.74525 | -78.63916 | 24663 ft | 453 kts | 355° |
| 2026-05-03 22:00 | 27.77680 | -78.63761 | 24955 ft | 455 kts | 355° |
| 2026-05-03 22:00 | 27.80854 | -78.63604 | 25234 ft | 458 kts | 355° |
| 2026-05-03 22:00 | 27.84004 | -78.63449 | 25530 ft | 460 kts | 355° |
| 2026-05-03 22:00 | 27.87209 | -78.63290 | 25825 ft | 462 kts | 355° |
| 2026-05-03 22:01 | 27.90424 | -78.63131 | 26140 ft | 464 kts | 354° |
| 2026-05-03 22:01 | 27.93669 | -78.62971 | 26408 ft | 467 kts | 354° |
| 2026-05-03 22:01 | 27.96918 | -78.62810 | 26668 ft | 470 kts | 354° |
| 2026-05-03 22:01 | 28.00196 | -78.62648 | 26943 ft | 472 kts | 354° |
| 2026-05-03 22:02 | 28.03481 | -78.62486 | 27224 ft | 474 kts | 354° |
| 2026-05-03 22:02 | 28.06793 | -78.62323 | 27496 ft | 477 kts | 354° |
| 2026-05-03 22:02 | 28.10113 | -78.62158 | 27754 ft | 479 kts | 354° |
| 2026-05-03 22:02 | 28.13447 | -78.61992 | 27998 ft | 481 kts | 354° |
| 2026-05-03 22:03 | 28.16801 | -78.61825 | 28246 ft | 483 kts | 354° |
| 2026-05-03 22:03 | 28.20171 | -78.61657 | 28507 ft | 486 kts | 354° |
| 2026-05-03 22:03 | 28.23519 | -78.61491 | 28656 ft | 490 kts | 354° |
| 2026-05-03 22:03 | 28.26938 | -78.61321 | 28882 ft | 492 kts | 354° |
| 2026-05-03 22:04 | 28.30363 | -78.61149 | 29154 ft | 494 kts | 354° |
| 2026-05-03 22:04 | 28.33798 | -78.60976 | 29397 ft | 495 kts | 354° |
| 2026-05-03 22:04 | 28.37253 | -78.60802 | 29609 ft | 498 kts | 354° |
| 2026-05-03 22:04 | 28.40723 | -78.60628 | 29821 ft | 500 kts | 354° |
| 2026-05-03 22:05 | 28.44202 | -78.60454 | 30028 ft | 502 kts | 354° |
| 2026-05-03 22:05 | 28.47685 | -78.60279 | 30294 ft | 503 kts | 354° |
| 2026-05-03 22:05 | 28.51176 | -78.60103 | 30563 ft | 503 kts | 354° |
| 2026-05-03 22:05 | 28.54667 | -78.59925 | 30877 ft | 501 kts | 353° |
| 2026-05-03 22:06 | 28.58105 | -78.59749 | 31212 ft | 499 kts | 353° |
| 2026-05-03 22:06 | 28.61605 | -78.59571 | 31547 ft | 497 kts | 353° |
| 2026-05-03 22:06 | 28.65015 | -78.59398 | 31836 ft | 496 kts | 353° |
| 2026-05-03 22:06 | 28.68461 | -78.59225 | 32107 ft | 495 kts | 353° |
| 2026-05-03 22:07 | 28.71900 | -78.59053 | 32401 ft | 494 kts | 352° |
| 2026-05-03 22:07 | 28.75329 | -78.58880 | 32706 ft | 493 kts | 352° |
| 2026-05-03 22:07 | 28.78746 | -78.58707 | 33061 ft | 491 kts | 352° |
| 2026-05-03 22:07 | 28.82154 | -78.58534 | 33396 ft | 488 kts | 352° |
| 2026-05-03 22:08 | 28.85540 | -78.58362 | 33689 ft | 487 kts | 351° |
| 2026-05-03 22:08 | 28.88923 | -78.58192 | 33932 ft | 487 kts | 351° |
| 2026-05-03 22:08 | 28.92302 | -78.58023 | 34158 ft | 486 kts | 351° |
| 2026-05-03 22:08 | 28.95678 | -78.57853 | 34375 ft | 486 kts | 351° |
| 2026-05-03 22:09 | 28.99008 | -78.57685 | 34525 ft | 486 kts | 351° |
| 2026-05-03 22:09 | 29.02381 | -78.57516 | 34674 ft | 487 kts | 351° |
| 2026-05-03 22:09 | 29.05766 | -78.57345 | 34903 ft | 487 kts | 351° |
| 2026-05-03 22:10 | 29.12550 | -78.57002 | 35069 ft | 490 kts | 351° |
| 2026-05-03 22:10 | 29.19347 | -78.56654 | 35078 ft | 488 kts | 351° |
| 2026-05-03 22:11 | 29.26098 | -78.56305 | 35080 ft | 483 kts | 351° |
| 2026-05-03 22:11 | 29.32770 | -78.55966 | 35077 ft | 478 kts | 350° |
| 2026-05-03 22:12 | 29.39412 | -78.54945 | 35093 ft | 504 kts | 7° |
| 2026-05-03 22:12 | 29.42723 | -78.53434 | 35091 ft | 521 kts | 19° |
| 2026-05-03 22:12 | 29.45868 | -78.51263 | 35106 ft | 530 kts | 24° |
| 2026-05-03 22:13 | 29.52400 | -78.47630 | 35087 ft | 514 kts | 6° |
| 2026-05-03 22:13 | 29.59263 | -78.45774 | 35091 ft | 503 kts | 0° |
| 2026-05-03 22:14 | 29.66045 | -78.44184 | 35090 ft | 492 kts | 0° |
| 2026-05-03 22:14 | 29.72730 | -78.42572 | 35110 ft | 491 kts | 1° |
| 2026-05-03 22:15 | 29.79374 | -78.40914 | 35106 ft | 492 kts | 1° |
| 2026-05-03 22:15 | 29.86069 | -78.39212 | 35103 ft | 493 kts | 1° |
| 2026-05-03 22:16 | 29.92773 | -78.37502 | 35112 ft | 495 kts | 2° |
| 2026-05-03 22:16 | 29.99482 | -78.35789 | 35112 ft | 495 kts | 2° |
| 2026-05-03 22:17 | 30.06214 | -78.34070 | 35109 ft | 496 kts | 2° |
| 2026-05-03 22:17 | 30.12942 | -78.32353 | 35122 ft | 502 kts | 2° |
| 2026-05-03 22:18 | 30.19794 | -78.30605 | 35123 ft | 508 kts | 2° |
| 2026-05-03 22:18 | 30.26746 | -78.28824 | 35125 ft | 515 kts | 2° |
| 2026-05-03 22:19 | 30.33773 | -78.27019 | 35121 ft | 520 kts | 2° |
| 2026-05-03 22:19 | 30.40856 | -78.25194 | 35117 ft | 523 kts | 2° |
| 2026-05-03 22:20 | 30.47968 | -78.23361 | 35125 ft | 524 kts | 2° |
| 2026-05-03 22:20 | 30.55046 | -78.21532 | 35118 ft | 525 kts | 2° |
| 2026-05-03 22:21 | 30.62166 | -78.19690 | 35117 ft | 524 kts | 2° |
| 2026-05-03 22:21 | 30.69285 | -78.17848 | 35121 ft | 523 kts | 2° |
| 2026-05-03 22:22 | 30.76382 | -78.16009 | 35124 ft | 522 kts | 2° |
| 2026-05-03 22:22 | 30.83459 | -78.14173 | 35119 ft | 520 kts | 2° |
| 2026-05-03 22:23 | 30.90467 | -78.12351 | 35117 ft | 519 kts | 2° |
| 2026-05-03 22:23 | 30.97507 | -78.10519 | 35167 ft | 517 kts | 2° |
| 2026-05-03 22:24 | 31.04542 | -78.08688 | 35133 ft | 518 kts | 2° |
| 2026-05-03 22:24 | 31.11572 | -78.06854 | 35131 ft | 518 kts | 2° |
| 2026-05-03 22:25 | 31.18602 | -78.05016 | 35134 ft | 518 kts | 2° |
| 2026-05-03 22:25 | 31.25638 | -78.03174 | 35162 ft | 519 kts | 2° |
| 2026-05-03 22:26 | 31.32697 | -78.01325 | 35146 ft | 521 kts | 3° |
| 2026-05-03 22:26 | 31.39729 | -77.99479 | 35137 ft | 522 kts | 3° |
| 2026-05-03 22:27 | 31.46826 | -77.97611 | 35136 ft | 523 kts | 3° |
| 2026-05-03 22:27 | 31.53938 | -77.95737 | 35150 ft | 525 kts | 2° |
| 2026-05-03 22:28 | 31.61054 | -77.93859 | 35143 ft | 525 kts | 2° |
| 2026-05-03 22:28 | 31.68193 | -77.91971 | 35135 ft | 526 kts | 2° |
| 2026-05-03 22:29 | 31.75272 | -77.90097 | 35143 ft | 525 kts | 2° |
| 2026-05-03 22:29 | 31.82413 | -77.88204 | 35144 ft | 526 kts | 2° |
| 2026-05-03 22:30 | 31.89556 | -77.86541 | 35142 ft | 515 kts | 354° |
| 2026-05-03 22:30 | 31.93078 | -77.86428 | 35143 ft | 499 kts | 345° |
| 2026-05-03 22:30 | 31.96541 | -77.86644 | 35152 ft | 497 kts | 344° |
| 2026-05-03 22:31 | 32.03451 | -77.87157 | 35145 ft | 497 kts | 344° |
| 2026-05-03 22:31 | 32.10330 | -77.87628 | 35154 ft | 499 kts | 345° |
| 2026-05-03 22:32 | 32.17268 | -77.88049 | 35153 ft | 500 kts | 345° |
| 2026-05-03 22:32 | 32.24215 | -77.88451 | 35148 ft | 499 kts | 345° |
| 2026-05-03 22:33 | 32.31141 | -77.88851 | 35199 ft | 499 kts | 345° |
| 2026-05-03 22:33 | 32.38077 | -77.89257 | 35153 ft | 498 kts | 344° |
| 2026-05-03 22:34 | 32.44996 | -77.89663 | 35146 ft | 497 kts | 344° |
| 2026-05-03 22:34 | 32.51853 | -77.90067 | 35148 ft | 496 kts | 344° |
| 2026-05-03 22:35 | 32.58745 | -77.90474 | 35192 ft | 495 kts | 344° |
| 2026-05-03 22:35 | 32.65624 | -77.90881 | 35159 ft | 494 kts | 344° |
| 2026-05-03 22:36 | 32.72494 | -77.91287 | 35146 ft | 493 kts | 344° |
| 2026-05-03 22:36 | 32.79341 | -77.91694 | 35149 ft | 492 kts | 344° |
| 2026-05-03 22:37 | 32.86134 | -77.92098 | 35149 ft | 492 kts | 344° |
| 2026-05-03 22:37 | 32.92966 | -77.92505 | 35150 ft | 492 kts | 344° |
| 2026-05-03 22:38 | 32.99791 | -77.92912 | 35151 ft | 492 kts | 344° |
| 2026-05-03 22:38 | 33.06633 | -77.93321 | 35151 ft | 492 kts | 344° |
| 2026-05-03 22:39 | 33.13106 | -77.93708 | 35170 ft | 493 kts | 345° |
| 2026-05-03 22:39 | 33.19927 | -77.94118 | 35149 ft | 494 kts | 345° |
| 2026-05-03 22:40 | 33.26779 | -77.94528 | 35146 ft | 494 kts | 345° |
| 2026-05-03 22:40 | 33.33638 | -77.94939 | 35138 ft | 495 kts | 345° |
| 2026-05-03 22:41 | 33.40514 | -77.95352 | 35152 ft | 495 kts | 345° |
| 2026-05-03 22:41 | 33.47384 | -77.95765 | 35131 ft | 493 kts | 345° |
| 2026-05-03 22:42 | 33.54183 | -77.96183 | 35132 ft | 492 kts | 345° |
| 2026-05-03 22:42 | 33.61009 | -77.96588 | 35125 ft | 491 kts | 345° |
| 2026-05-03 22:43 | 33.67829 | -77.96998 | 35142 ft | 490 kts | 345° |
| 2026-05-03 22:43 | 33.74624 | -77.97409 | 35124 ft | 487 kts | 345° |
| 2026-05-03 22:44 | 33.81385 | -77.97821 | 35108 ft | 486 kts | 345° |
| 2026-05-03 22:44 | 33.88083 | -77.98210 | 35110 ft | 487 kts | 346° |
| 2026-05-03 22:45 | 33.94907 | -77.98101 | 35112 ft | 492 kts | 350° |
| 2026-05-03 22:45 | 34.01737 | -77.97762 | 35110 ft | 491 kts | 350° |
| 2026-05-03 22:46 | 34.08556 | -77.97448 | 35107 ft | 489 kts | 350° |
| 2026-05-03 22:46 | 34.15301 | -77.97186 | 35150 ft | 488 kts | 350° |
| 2026-05-03 22:47 | 34.22089 | -77.96941 | 35109 ft | 488 kts | 350° |
| 2026-05-03 22:47 | 34.28863 | -77.96699 | 35100 ft | 487 kts | 350° |
| 2026-05-03 22:48 | 34.35635 | -77.96454 | 35101 ft | 486 kts | 350° |
| 2026-05-03 22:48 | 34.42397 | -77.96207 | 35122 ft | 486 kts | 351° |
| 2026-05-03 22:49 | 34.49113 | -77.95961 | 35099 ft | 486 kts | 351° |
| 2026-05-03 22:49 | 34.55867 | -77.95715 | 35082 ft | 485 kts | 350° |
| 2026-05-03 22:50 | 34.62605 | -77.95518 | 35094 ft | 485 kts | 350° |
| 2026-05-03 22:50 | 34.69329 | -77.95239 | 35100 ft | 485 kts | 351° |
| 2026-05-03 22:51 | 34.76076 | -77.94968 | 35096 ft | 484 kts | 351° |
| 2026-05-03 22:51 | 34.82749 | -77.94718 | 35091 ft | 483 kts | 351° |
| 2026-05-03 22:52 | 34.89467 | -77.94471 | 35102 ft | 482 kts | 351° |
| 2026-05-03 22:52 | 34.96171 | -77.94224 | 35111 ft | 482 kts | 351° |
| 2026-05-03 22:53 | 35.02869 | -77.93975 | 35101 ft | 481 kts | 351° |
| 2026-05-03 22:53 | 35.09509 | -77.93728 | 35096 ft | 480 kts | 351° |
| 2026-05-03 22:54 | 35.16170 | -77.93480 | 35138 ft | 480 kts | 351° |
| 2026-05-03 22:54 | 35.22846 | -77.93231 | 35107 ft | 479 kts | 351° |
| 2026-05-03 22:55 | 35.29507 | -77.92982 | 35096 ft | 479 kts | 351° |
| 2026-05-03 22:55 | 35.36062 | -77.93060 | 35102 ft | 470 kts | 346° |
| 2026-05-03 22:56 | 35.42554 | -77.93663 | 35094 ft | 467 kts | 344° |
| 2026-05-03 22:56 | 35.49033 | -77.94302 | 35092 ft | 468 kts | 345° |
| 2026-05-03 22:57 | 35.55533 | -77.94873 | 35093 ft | 469 kts | 346° |
| 2026-05-03 22:57 | 35.62006 | -77.95367 | 35093 ft | 469 kts | 346° |
| 2026-05-03 22:58 | 35.68500 | -77.95917 | 35097 ft | 469 kts | 346° |
| 2026-05-03 22:58 | 35.74997 | -77.96484 | 35096 ft | 468 kts | 346° |
| 2026-05-03 22:59 | 35.81489 | -77.97027 | 35090 ft | 467 kts | 346° |
| 2026-05-03 22:59 | 35.87972 | -77.97566 | 35092 ft | 467 kts | 346° |
| 2026-05-03 23:00 | 35.94401 | -77.98106 | 35097 ft | 466 kts | 346° |
| 2026-05-03 23:00 | 36.00856 | -77.98650 | 35100 ft | 466 kts | 346° |
| 2026-05-03 23:01 | 36.07321 | -77.99194 | 35099 ft | 465 kts | 346° |
| 2026-05-03 23:01 | 36.13777 | -77.99740 | 35092 ft | 465 kts | 346° |
| 2026-05-03 23:02 | 36.20180 | -78.00282 | 35093 ft | 464 kts | 346° |
| 2026-05-03 23:02 | 36.26611 | -78.00829 | 35082 ft | 463 kts | 346° |
| 2026-05-03 23:03 | 36.33014 | -78.01377 | 35085 ft | 461 kts | 346° |
| 2026-05-03 23:03 | 36.39413 | -78.01920 | 35117 ft | 461 kts | 346° |
| 2026-05-03 23:04 | 36.45811 | -78.02454 | 35089 ft | 460 kts | 346° |
| 2026-05-03 23:04 | 36.52155 | -78.02983 | 35086 ft | 460 kts | 346° |
| 2026-05-03 23:05 | 36.58537 | -78.03521 | 35130 ft | 460 kts | 346° |
| 2026-05-03 23:05 | 36.64916 | -78.04062 | 35176 ft | 459 kts | 346° |
| 2026-05-03 23:06 | 36.71255 | -78.04601 | 35136 ft | 458 kts | 346° |
| 2026-05-03 23:06 | 36.77607 | -78.05143 | 35127 ft | 458 kts | 346° |
| 2026-05-03 23:07 | 36.83955 | -78.05685 | 35122 ft | 457 kts | 346° |
| 2026-05-03 23:07 | 36.90298 | -78.06227 | 35089 ft | 457 kts | 346° |
| 2026-05-03 23:08 | 36.96584 | -78.06764 | 35068 ft | 455 kts | 346° |
| 2026-05-03 23:08 | 37.02890 | -78.07304 | 35055 ft | 454 kts | 346° |
| 2026-05-03 23:09 | 37.09177 | -78.07845 | 35057 ft | 453 kts | 346° |
| 2026-05-03 23:09 | 37.15460 | -78.08386 | 35062 ft | 453 kts | 346° |
| 2026-05-03 23:10 | 37.21703 | -78.08925 | 35055 ft | 452 kts | 346° |
| 2026-05-03 23:10 | 37.27960 | -78.09465 | 35063 ft | 451 kts | 345° |
| 2026-05-03 23:11 | 37.34166 | -78.10003 | 35057 ft | 451 kts | 345° |
| 2026-05-03 23:11 | 37.40394 | -78.10544 | 35061 ft | 451 kts | 345° |
| 2026-05-03 23:12 | 37.46647 | -78.11088 | 35051 ft | 451 kts | 345° |
| 2026-05-03 23:12 | 37.52918 | -78.11637 | 35047 ft | 451 kts | 345° |
| 2026-05-03 23:13 | 37.59191 | -78.12183 | 35087 ft | 451 kts | 345° |
| 2026-05-03 23:13 | 37.65452 | -78.12708 | 35055 ft | 452 kts | 346° |
| 2026-05-03 23:14 | 37.71695 | -78.13215 | 35047 ft | 452 kts | 346° |
| 2026-05-03 23:14 | 37.77956 | -78.13730 | 35040 ft | 452 kts | 346° |
| 2026-05-03 23:15 | 37.84238 | -78.14253 | 35048 ft | 452 kts | 346° |
| 2026-05-03 23:15 | 37.90500 | -78.14777 | 35036 ft | 452 kts | 346° |
| 2026-05-03 23:16 | 37.96743 | -78.15300 | 35036 ft | 452 kts | 346° |
| 2026-05-03 23:16 | 38.02984 | -78.15824 | 35029 ft | 452 kts | 346° |
| 2026-05-03 23:17 | 38.09269 | -78.16352 | 35037 ft | 452 kts | 346° |
| 2026-05-03 23:17 | 38.15536 | -78.16880 | 35033 ft | 452 kts | 346° |
| 2026-05-03 23:18 | 38.21776 | -78.17405 | 35031 ft | 451 kts | 346° |
| 2026-05-03 23:18 | 38.28031 | -78.17933 | 35029 ft | 451 kts | 346° |
| 2026-05-03 23:19 | 38.34304 | -78.18465 | 35037 ft | 451 kts | 346° |
| 2026-05-03 23:19 | 38.40543 | -78.18992 | 35032 ft | 449 kts | 346° |
| 2026-05-03 23:20 | 38.46741 | -78.19518 | 35025 ft | 448 kts | 346° |
| 2026-05-03 23:20 | 38.52945 | -78.20046 | 35066 ft | 447 kts | 346° |
| 2026-05-03 23:21 | 38.59188 | -78.20579 | 35037 ft | 447 kts | 346° |
| 2026-05-03 23:21 | 38.65392 | -78.21109 | 35031 ft | 446 kts | 346° |
| 2026-05-03 23:22 | 38.74634 | -78.21901 | 35009 ft | 446 kts | 346° |
| 2026-05-03 23:22 | 38.80823 | -78.22432 | 35025 ft | 446 kts | 346° |
| 2026-05-03 23:23 | 38.87008 | -78.22963 | 35020 ft | 447 kts | 346° |
| 2026-05-03 23:23 | 38.93211 | -78.23497 | 35017 ft | 446 kts | 346° |
| 2026-05-03 23:24 | 38.99364 | -78.24027 | 35049 ft | 446 kts | 347° |
| 2026-05-03 23:24 | 39.05568 | -78.24564 | 35028 ft | 447 kts | 347° |
| 2026-05-03 23:25 | 39.11778 | -78.25101 | 35021 ft | 447 kts | 347° |
| 2026-05-03 23:25 | 39.17992 | -78.25639 | 35018 ft | 447 kts | 347° |
| 2026-05-03 23:26 | 39.24164 | -78.26176 | 35046 ft | 449 kts | 347° |
| 2026-05-03 23:26 | 39.30405 | -78.26720 | 35030 ft | 449 kts | 347° |
| 2026-05-03 23:27 | 39.36648 | -78.27264 | 35023 ft | 450 kts | 347° |
| 2026-05-03 23:27 | 39.42896 | -78.27809 | 35016 ft | 450 kts | 347° |
| 2026-05-03 23:28 | 39.49113 | -78.28354 | 35026 ft | 451 kts | 348° |
| 2026-05-03 23:28 | 39.55364 | -78.28903 | 35019 ft | 451 kts | 348° |
| 2026-05-03 23:29 | 39.61619 | -78.29455 | 35018 ft | 452 kts | 348° |
| 2026-05-03 23:29 | 39.67856 | -78.30007 | 35053 ft | 452 kts | 348° |
| 2026-05-03 23:30 | 39.74121 | -78.30536 | 35029 ft | 452 kts | 349° |
| 2026-05-03 23:30 | 39.80389 | -78.30977 | 35018 ft | 452 kts | 349° |
| 2026-05-03 23:31 | 39.86675 | -78.31422 | 35011 ft | 451 kts | 349° |
| 2026-05-03 23:31 | 39.92886 | -78.31880 | 35020 ft | 451 kts | 349° |
| 2026-05-03 23:32 | 39.99139 | -78.32343 | 35015 ft | 449 kts | 349° |
| 2026-05-03 23:32 | 40.05333 | -78.33082 | 35014 ft | 446 kts | 346° |
| 2026-05-03 23:33 | 40.11495 | -78.33972 | 35017 ft | 445 kts | 346° |
| 2026-05-03 23:33 | 40.17613 | -78.34852 | 35001 ft | 445 kts | 346° |
| 2026-05-03 23:34 | 40.23769 | -78.35725 | 34994 ft | 446 kts | 346° |
| 2026-05-03 23:34 | 40.29938 | -78.36566 | 35003 ft | 446 kts | 346° |
| 2026-05-03 23:35 | 40.35056 | -78.37259 | 35023 ft | 447 kts | 347° |
| 2026-05-03 23:35 | 40.42249 | -78.38237 | 34999 ft | 448 kts | 347° |
| 2026-05-03 23:36 | 40.48450 | -78.39083 | 35010 ft | 448 kts | 347° |
| 2026-05-03 23:36 | 40.54645 | -78.39931 | 35009 ft | 447 kts | 347° |
| 2026-05-03 23:37 | 40.59778 | -78.40636 | 35017 ft | 448 kts | 347° |
| 2026-05-03 23:37 | 40.65987 | -78.41488 | 35010 ft | 447 kts | 347° |
| 2026-05-03 23:38 | 40.73176 | -78.42478 | 35007 ft | 447 kts | 347° |
| 2026-05-03 23:38 | 40.78364 | -78.43195 | 35017 ft | 447 kts | 347° |
| 2026-05-03 23:39 | 40.84555 | -78.44050 | 35001 ft | 448 kts | 347° |
| 2026-05-03 23:39 | 40.90710 | -78.44903 | 34987 ft | 447 kts | 347° |
| 2026-05-03 23:40 | 40.96898 | -78.45754 | 34979 ft | 447 kts | 347° |
| 2026-05-03 23:40 | 41.03071 | -78.46607 | 34986 ft | 447 kts | 348° |
| 2026-05-03 23:41 | 41.09283 | -78.47470 | 34982 ft | 447 kts | 347° |
| 2026-05-03 23:41 | 41.15425 | -78.48326 | 34982 ft | 447 kts | 348° |
| 2026-05-03 23:42 | 41.21612 | -78.49191 | 35004 ft | 448 kts | 348° |
| 2026-05-03 23:42 | 41.27817 | -78.50061 | 34985 ft | 448 kts | 348° |
| 2026-05-03 23:43 | 41.34019 | -78.50933 | 34979 ft | 448 kts | 348° |
| 2026-05-03 23:43 | 41.40229 | -78.51804 | 34979 ft | 448 kts | 348° |
| 2026-05-03 23:44 | 41.46400 | -78.52673 | 34976 ft | 449 kts | 348° |
| 2026-05-03 23:44 | 41.52621 | -78.53550 | 34968 ft | 450 kts | 348° |
| 2026-05-03 23:45 | 41.58852 | -78.54430 | 34955 ft | 450 kts | 348° |
| 2026-05-03 23:45 | 41.65076 | -78.55311 | 34965 ft | 450 kts | 348° |
| 2026-05-03 23:46 | 41.71311 | -78.56196 | 34951 ft | 450 kts | 348° |
| 2026-05-03 23:46 | 41.77501 | -78.57076 | 34944 ft | 450 kts | 348° |
| 2026-05-03 23:47 | 41.83729 | -78.57964 | 34961 ft | 450 kts | 348° |
| 2026-05-03 23:47 | 41.89950 | -78.58852 | 34956 ft | 450 kts | 348° |
| 2026-05-03 23:48 | 41.96175 | -78.59755 | 34944 ft | 450 kts | 348° |
| 2026-05-03 23:48 | 42.02369 | -78.60649 | 34787 ft | 452 kts | 348° |
| 2026-05-03 23:49 | 42.05471 | -78.61092 | 34587 ft | 440 kts | 349° |
| 2026-05-03 23:49 | 42.08444 | -78.61509 | 34477 ft | 420 kts | 348° |
| 2026-05-03 23:49 | 42.11293 | -78.61909 | 34314 ft | 405 kts | 348° |
| 2026-05-03 23:49 | 42.14058 | -78.62303 | 33929 ft | 396 kts | 348° |
| 2026-05-03 23:50 | 42.16785 | -78.62698 | 33279 ft | 392 kts | 348° |
| 2026-05-03 23:50 | 42.19489 | -78.63092 | 32655 ft | 389 kts | 348° |
| 2026-05-03 23:50 | 42.22131 | -78.63478 | 32162 ft | 385 kts | 348° |
| 2026-05-03 23:50 | 42.24786 | -78.63866 | 31752 ft | 383 kts | 348° |
| 2026-05-03 23:51 | 42.27422 | -78.64249 | 31370 ft | 380 kts | 348° |
| 2026-05-03 23:51 | 42.30038 | -78.64628 | 30995 ft | 376 kts | 348° |
| 2026-05-03 23:51 | 42.32632 | -78.65003 | 30632 ft | 373 kts | 348° |
| 2026-05-03 23:51 | 42.35196 | -78.65374 | 30285 ft | 370 kts | 348° |
| 2026-05-03 23:52 | 42.37744 | -78.65744 | 29929 ft | 367 kts | 348° |
| 2026-05-03 23:52 | 42.40269 | -78.66111 | 29509 ft | 364 kts | 348° |
| 2026-05-03 23:52 | 42.42771 | -78.66474 | 29174 ft | 359 kts | 348° |
| 2026-05-03 23:52 | 42.45238 | -78.66832 | 28811 ft | 354 kts | 348° |
| 2026-05-03 23:53 | 42.47639 | -78.67181 | 28471 ft | 350 kts | 348° |
| 2026-05-03 23:53 | 42.50046 | -78.67532 | 28116 ft | 346 kts | 348° |
| 2026-05-03 23:53 | 42.52431 | -78.67880 | 27752 ft | 343 kts | 348° |
| 2026-05-03 23:53 | 42.54787 | -78.68224 | 27422 ft | 338 kts | 348° |
| 2026-05-03 23:54 | 42.57117 | -78.68564 | 27067 ft | 335 kts | 348° |
| 2026-05-03 23:54 | 42.59406 | -78.68898 | 26730 ft | 332 kts | 348° |
| 2026-05-03 23:54 | 42.61693 | -78.69232 | 26391 ft | 329 kts | 348° |
| 2026-05-03 23:54 | 42.63955 | -78.69563 | 26055 ft | 326 kts | 348° |
| 2026-05-03 23:55 | 42.66172 | -78.69889 | 25731 ft | 323 kts | 348° |
| 2026-05-03 23:55 | 42.68397 | -78.70216 | 25415 ft | 320 kts | 348° |
| 2026-05-03 23:55 | 42.70604 | -78.70540 | 25088 ft | 318 kts | 348° |
| 2026-05-03 23:55 | 42.72784 | -78.70860 | 24767 ft | 315 kts | 348° |
| 2026-05-03 23:56 | 42.74960 | -78.71180 | 24451 ft | 314 kts | 348° |
| 2026-05-03 23:56 | 42.77125 | -78.71498 | 24131 ft | 312 kts | 348° |
| 2026-05-03 23:56 | 42.79269 | -78.71814 | 23813 ft | 310 kts | 348° |
| 2026-05-03 23:56 | 42.81397 | -78.72127 | 23499 ft | 308 kts | 348° |
| 2026-05-03 23:57 | 42.83520 | -78.72441 | 23143 ft | 306 kts | 348° |
| 2026-05-03 23:57 | 42.85633 | -78.72752 | 22826 ft | 304 kts | 348° |
| 2026-05-03 23:57 | 42.87733 | -78.73062 | 22507 ft | 303 kts | 348° |
| 2026-05-03 23:57 | 42.89800 | -78.73367 | 22191 ft | 304 kts | 348° |
| 2026-05-03 23:58 | 42.91918 | -78.73753 | 21877 ft | 309 kts | 340° |
| 2026-05-03 23:58 | 42.93828 | -78.75004 | 21590 ft | 308 kts | 321° |
| 2026-05-03 23:58 | 42.95387 | -78.76981 | 21199 ft | 305 kts | 308° |
| 2026-05-03 23:58 | 42.96731 | -78.79194 | 20874 ft | 302 kts | 307° |
| 2026-05-03 23:59 | 42.98040 | -78.81422 | 20540 ft | 299 kts | 306° |
| 2026-05-03 23:59 | 42.99334 | -78.83625 | 20233 ft | 296 kts | 306° |
| 2026-05-03 23:59 | 43.00622 | -78.85804 | 19912 ft | 294 kts | 306° |
| 2026-05-03 23:59 | 43.01888 | -78.87931 | 19609 ft | 291 kts | 306° |
| 2026-05-04 00:00 | 43.03163 | -78.90065 | 19298 ft | 289 kts | 306° |
| 2026-05-04 00:00 | 43.04421 | -78.92163 | 19131 ft | 282 kts | 306° |
| 2026-05-04 00:00 | 43.05660 | -78.94230 | 18843 ft | 280 kts | 306° |
| 2026-05-04 00:00 | 43.06889 | -78.96281 | 18541 ft | 278 kts | 306° |
| 2026-05-04 00:01 | 43.08110 | -78.98319 | 18265 ft | 276 kts | 306° |
| 2026-05-04 00:01 | 43.09323 | -79.00343 | 17946 ft | 275 kts | 306° |
| 2026-05-04 00:01 | 43.10529 | -79.02356 | 17611 ft | 273 kts | 307° |
| 2026-05-04 00:01 | 43.11726 | -79.04356 | 17287 ft | 271 kts | 307° |
| 2026-05-04 00:02 | 43.12903 | -79.06322 | 16965 ft | 270 kts | 306° |
| 2026-05-04 00:02 | 43.14092 | -79.08308 | 16686 ft | 271 kts | 307° |
| 2026-05-04 00:02 | 43.15307 | -79.10341 | 16382 ft | 280 kts | 307° |
| 2026-05-04 00:02 | 43.16553 | -79.12428 | 16050 ft | 286 kts | 307° |
| 2026-05-04 00:03 | 43.17819 | -79.14549 | 15720 ft | 289 kts | 307° |
| 2026-05-04 00:03 | 43.19094 | -79.16683 | 15385 ft | 290 kts | 307° |
| 2026-05-04 00:03 | 43.20371 | -79.18822 | 15048 ft | 289 kts | 307° |
| 2026-05-04 00:03 | 43.21636 | -79.20944 | 14710 ft | 287 kts | 307° |
| 2026-05-04 00:04 | 43.22894 | -79.23055 | 14391 ft | 285 kts | 308° |
| 2026-05-04 00:04 | 43.24142 | -79.25151 | 14064 ft | 283 kts | 308° |
| 2026-05-04 00:04 | 43.25384 | -79.27239 | 13743 ft | 281 kts | 308° |
| 2026-05-04 00:04 | 43.26618 | -79.29314 | 13394 ft | 280 kts | 308° |
| 2026-05-04 00:05 | 43.27827 | -79.31349 | 13057 ft | 278 kts | 307° |
| 2026-05-04 00:05 | 43.29042 | -79.33395 | 12727 ft | 275 kts | 307° |
| 2026-05-04 00:05 | 43.30324 | -79.35333 | 12404 ft | 276 kts | 319° |
| 2026-05-04 00:05 | 43.31990 | -79.36647 | 12123 ft | 276 kts | 330° |
| 2026-05-04 00:06 | 43.33736 | -79.37744 | 11798 ft | 275 kts | 330° |
| 2026-05-04 00:06 | 43.35473 | -79.38836 | 11469 ft | 274 kts | 330° |
| 2026-05-04 00:06 | 43.37197 | -79.39926 | 11155 ft | 272 kts | 329° |
| 2026-05-04 00:06 | 43.38907 | -79.41016 | 10845 ft | 270 kts | 329° |
| 2026-05-04 00:07 | 43.40606 | -79.42105 | 10531 ft | 269 kts | 329° |
| 2026-05-04 00:07 | 43.42272 | -79.43175 | 10226 ft | 267 kts | 329° |
| 2026-05-04 00:07 | 43.43951 | -79.44255 | 9946 ft | 265 kts | 328° |
| 2026-05-04 00:07 | 43.45587 | -79.45306 | 9674 ft | 261 kts | 328° |
| 2026-05-04 00:08 | 43.47216 | -79.46356 | 9359 ft | 256 kts | 328° |
| 2026-05-04 00:08 | 43.48831 | -79.47399 | 9013 ft | 256 kts | 328° |
| 2026-05-04 00:08 | 43.50443 | -79.48440 | 8703 ft | 255 kts | 328° |
| 2026-05-04 00:08 | 43.52052 | -79.49478 | 8378 ft | 255 kts | 328° |
| 2026-05-04 00:09 | 43.53647 | -79.50507 | 8107 ft | 251 kts | 327° |
| 2026-05-04 00:09 | 43.55196 | -79.51503 | 7833 ft | 242 kts | 327° |
| 2026-05-04 00:09 | 43.56692 | -79.52458 | 7537 ft | 232 kts | 327° |
| 2026-05-04 00:09 | 43.58144 | -79.53303 | 7208 ft | 226 kts | 336° |
| 2026-05-04 00:10 | 43.59701 | -79.53249 | 6877 ft | 236 kts | 6° |
| 2026-05-04 00:10 | 43.61188 | -79.52169 | 6572 ft | 243 kts | 32° |
| 2026-05-04 00:10 | 43.62388 | -79.50569 | 6325 ft | 244 kts | 39° |
| 2026-05-04 00:10 | 43.63553 | -79.48845 | 6015 ft | 246 kts | 40° |
| 2026-05-04 00:11 | 43.64715 | -79.47106 | 5707 ft | 247 kts | 40° |
| 2026-05-04 00:11 | 43.65888 | -79.45360 | 5406 ft | 248 kts | 40° |
| 2026-05-04 00:11 | 43.67064 | -79.43620 | 5089 ft | 248 kts | 40° |
| 2026-05-04 00:11 | 43.68247 | -79.41880 | 4790 ft | 247 kts | 39° |
| 2026-05-04 00:12 | 43.69411 | -79.40171 | 4461 ft | 242 kts | 39° |
| 2026-05-04 00:12 | 43.70560 | -79.38489 | 4147 ft | 241 kts | 39° |
| 2026-05-04 00:12 | 43.71758 | -79.36872 | 3835 ft | 237 kts | 27° |
| 2026-05-04 00:12 | 43.73216 | -79.36139 | 3519 ft | 212 kts | 351° |
| 2026-05-04 00:13 | 43.74530 | -79.36577 | 3217 ft | 185 kts | 322° |
| 2026-05-04 00:13 | 43.75647 | -79.37381 | 3026 ft | 176 kts | 320° |
| 2026-05-04 00:13 | 43.76695 | -79.38185 | 3011 ft | 172 kts | 314° |
| 2026-05-04 00:13 | 43.77355 | -79.39381 | 3003 ft | 152 kts | 276° |
| 2026-05-04 00:14 | 43.77326 | -79.40820 | 3006 ft | 150 kts | 261° |
| 2026-05-04 00:14 | 43.77179 | -79.42254 | 3010 ft | 151 kts | 260° |
| 2026-05-04 00:14 | 43.77025 | -79.43668 | 3011 ft | 147 kts | 260° |
| 2026-05-04 00:14 | 43.76870 | -79.45076 | 3005 ft | 149 kts | 259° |
| 2026-05-04 00:15 | 43.76392 | -79.46296 | 3020 ft | 150 kts | 226° |
| 2026-05-04 00:15 | 43.75720 | -79.47345 | 2969 ft | 139 kts | 243° |
| 2026-05-04 00:15 | 43.75195 | -79.48383 | 2988 ft | 125 kts | 235° |
| 2026-05-04 00:15 | 43.74618 | -79.49339 | 2975 ft | 129 kts | 235° |
| 2026-05-04 00:16 | 43.74049 | -79.50272 | 2960 ft | 124 kts | 236° |
| 2026-05-04 00:16 | 43.73485 | -79.51140 | 2957 ft | 125 kts | 235° |
| 2026-05-04 00:16 | 43.72874 | -79.52063 | 2636 ft | 132 kts | 233° |
| 2026-05-04 00:16 | 43.72224 | -79.52939 | 2323 ft | 128 kts | 228° |
| 2026-05-04 00:17 | 43.71581 | -79.53789 | 1950 ft | 127 kts | 226° |
| 2026-05-04 00:17 | 43.70976 | -79.54672 | 1630 ft | 126 kts | 227° |
| 2026-05-04 00:17 | 43.70378 | -79.55575 | 1456 ft | 132 kts | 226° |
| 2026-05-04 00:17 | 43.69725 | -79.56541 | 1276 ft | 141 kts | 227° |
| 2026-05-04 00:18 | 43.69044 | -79.57497 | 1068 ft | 142 kts | 226° |
| 2026-05-04 00:18 | 43.68355 | -79.58523 | 841 ft | 146 kts | 227° |
| 2026-05-04 00:18 | 43.67662 | -79.59534 | 680 ft | 148 kts | 225° |
| 2026-05-04 00:18 | 43.66967 | -79.60539 | 560 ft | 137 kts | 225° |
| 2026-05-04 00:19 | 43.66418 | -79.61338 | 564 ft | 93 kts | 228° |
| 2026-05-04 00:19 | 43.66148 | -79.61729 | 563 ft | 26 kts | 225° |
| 2026-05-04 00:19 | 43.66061 | -79.61861 | 562 ft | 13 kts | 236° |
| 2026-05-04 00:19 | 43.66016 | -79.61976 | 561 ft | 13 kts | 248° |
| 2026-05-04 00:20 | 43.65987 | -79.62096 | 567 ft | 13 kts | 252° |
| 2026-05-04 00:20 | 43.66002 | -79.62209 | 560 ft | 13 kts | 313° |
| 2026-05-04 00:20 | 43.66065 | -79.62293 | 561 ft | 12 kts | 316° |
| 2026-05-04 00:20 | 43.66128 | -79.62375 | 570 ft | 13 kts | 316° |
| 2026-05-04 00:21 | 43.66201 | -79.62467 | 557 ft | 15 kts | 316° |
| 2026-05-04 00:21 | 43.66282 | -79.62493 | 560 ft | 13 kts | 27° |
| 2026-05-04 00:21 | 43.66354 | -79.62408 | 561 ft | 14 kts | 42° |
| 2026-05-04 00:21 | 43.66420 | -79.62319 | 564 ft | 13 kts | 47° |
| 2026-05-04 00:22 | 43.66491 | -79.62233 | 564 ft | 14 kts | 42° |
| 2026-05-04 00:22 | 43.66568 | -79.62135 | 565 ft | 16 kts | 43° |
| 2026-05-04 00:22 | 43.66652 | -79.62028 | 567 ft | 15 kts | 43° |
| 2026-05-04 00:22 | 43.66727 | -79.61935 | 571 ft | 15 kts | 42° |
| 2026-05-04 00:23 | 43.66808 | -79.61833 | 568 ft | 16 kts | 42° |
| 2026-05-04 00:23 | 43.66888 | -79.61732 | 568 ft | 16 kts | 43° |
| 2026-05-04 00:23 | 43.66965 | -79.61633 | 568 ft | 15 kts | 42° |
| 2026-05-04 00:23 | 43.67044 | -79.61535 | 569 ft | 15 kts | 42° |
| 2026-05-04 00:24 | 43.67122 | -79.61436 | 567 ft | 17 kts | 42° |
| 2026-05-04 00:24 | 43.67201 | -79.61324 | 568 ft | 17 kts | 52° |
| 2026-05-04 00:24 | 43.67277 | -79.61263 | 565 ft | 14 kts | 333° |
| 2026-05-04 00:24 | 43.67345 | -79.61351 | 561 ft | 13 kts | 317° |
| 2026-05-04 00:25 | 43.67415 | -79.61441 | 561 ft | 15 kts | 317° |
| 2026-05-04 00:25 | 43.67496 | -79.61548 | 562 ft | 16 kts | 316° |
| 2026-05-04 00:25 | 43.67580 | -79.61658 | 562 ft | 17 kts | 316° |
| 2026-05-04 00:25 | 43.67671 | -79.61775 | 562 ft | 19 kts | 316° |
| 2026-05-04 00:26 | 43.67766 | -79.61900 | 562 ft | 19 kts | 316° |
| 2026-05-04 00:26 | 43.67854 | -79.62013 | 561 ft | 14 kts | 316° |
| 2026-05-04 00:26 | 43.67933 | -79.62060 | 563 ft | 13 kts | 10° |
| 2026-05-04 00:26 | 43.67981 | -79.62005 | 563 ft | 0 kts | 54° |
| 2026-05-04 00:27 | 43.68010 | -79.61990 | 569 ft | 9 kts | 10° |
| 2026-05-04 00:27 | 43.68075 | -79.61967 | 564 ft | 10 kts | 12° |
| 2026-05-04 00:27 | 43.68136 | -79.61972 | 565 ft | 7 kts | 348° |
| 2026-05-04 00:27 | 43.68171 | -79.61981 | 567 ft | 2 kts | 351° |
| 2026-05-04 00:28 | 43.68175 | -79.61982 | 564 ft | 0 kts | 350° |
| 2026-05-04 00:28 | 43.68171 | -79.61981 | 567 ft | 0 kts | 350° |